sensor_id;sensor_type;location;lat;lon;timestamp;pressure;altitude;pressure_sealevel;temperature;humidity
47080;BME280;33067;49.296;14.470;2023-04-26T00:01:07;96765.07;;;9.51;36.47
47080;BME280;33067;49.296;14.470;2023-04-26T00:03:32;96768.06;;;9.62;36.22
47080;BME280;33067;49.296;14.470;2023-04-26T00:05:59;96767.95;;;9.62;36.34
47080;BME280;33067;49.296;14.470;2023-04-26T00:08:23;96768.12;;;9.72;36.53
47080;BME280;33067;49.296;14.470;2023-04-26T00:10:48;96760.24;;;10.10;36.16
47080;BME280;33067;49.296;14.470;2023-04-26T00:13:13;96753.94;;;10.34;35.98
47080;BME280;33067;49.296;14.470;2023-04-26T00:15:39;96752.60;;;10.58;36.27
47080;BME280;33067;49.296;14.470;2023-04-26T00:18:05;96753.28;;;10.94;35.83
47080;BME280;33067;49.296;14.470;2023-04-26T00:20:30;96749.78;;;10.82;35.84
47080;BME280;33067;49.296;14.470;2023-04-26T00:22:55;96749.29;;;10.22;36.01
47080;BME280;33067;49.296;14.470;2023-04-26T00:25:21;96753.75;;;10.02;35.68
47080;BME280;33067;49.296;14.470;2023-04-26T00:27:46;96761.74;;;9.68;36.62
47080;BME280;33067;49.296;14.470;2023-04-26T00:30:13;96767.15;;;10.23;36.32
47080;BME280;33067;49.296;14.470;2023-04-26T00:32:37;96768.65;;;9.93;36.13
47080;BME280;33067;49.296;14.470;2023-04-26T00:35:03;96768.66;;;10.00;35.92
47080;BME280;33067;49.296;14.470;2023-04-26T00:37:28;96769.38;;;10.00;36.16
47080;BME280;33067;49.296;14.470;2023-04-26T00:39:53;96773.59;;;9.76;36.20
47080;BME280;33067;49.296;14.470;2023-04-26T00:42:18;96774.30;;;9.67;36.47
47080;BME280;33067;49.296;14.470;2023-04-26T00:44:44;96770.28;;;9.87;36.35
47080;BME280;33067;49.296;14.470;2023-04-26T00:47:09;96770.71;;;10.09;36.55
47080;BME280;33067;49.296;14.470;2023-04-26T00:49:35;96773.04;;;10.30;36.58
47080;BME280;33067;49.296;14.470;2023-04-26T00:52:00;96775.95;;;10.75;36.33
47080;BME280;33067;49.296;14.470;2023-04-26T00:54:25;96777.68;;;10.71;36.31
47080;BME280;33067;49.296;14.470;2023-04-26T00:56:50;96778.21;;;10.62;36.71
47080;BME280;33067;49.296;14.470;2023-04-26T00:59:16;96775.21;;;10.92;36.22
47080;BME280;33067;49.296;14.470;2023-04-26T01:01:41;96776.61;;;10.78;36.61
47080;BME280;33067;49.296;14.470;2023-04-26T01:04:07;96776.04;;;10.55;36.65
47080;BME280;33067;49.296;14.470;2023-04-26T01:06:33;96774.56;;;10.41;37.08
47080;BME280;33067;49.296;14.470;2023-04-26T01:08:59;96774.07;;;10.52;36.94
47080;BME280;33067;49.296;14.470;2023-04-26T01:11:22;96773.27;;;10.33;37.04
47080;BME280;33067;49.296;14.470;2023-04-26T01:13:48;96767.97;;;10.71;36.58
47080;BME280;33067;49.296;14.470;2023-04-26T01:16:13;96762.32;;;10.76;36.53
47080;BME280;33067;49.296;14.470;2023-04-26T01:18:40;96758.54;;;10.69;36.59
47080;BME280;33067;49.296;14.470;2023-04-26T01:21:04;96763.07;;;10.66;36.64
47080;BME280;33067;49.296;14.470;2023-04-26T01:23:30;96764.03;;;10.56;36.74
47080;BME280;33067;49.296;14.470;2023-04-26T01:25:55;96767.39;;;10.62;36.50
47080;BME280;33067;49.296;14.470;2023-04-26T01:28:20;96771.29;;;10.65;36.29
47080;BME280;33067;49.296;14.470;2023-04-26T01:30:46;96774.52;;;10.21;36.32
47080;BME280;33067;49.296;14.470;2023-04-26T01:33:11;96773.65;;;10.53;36.64
47080;BME280;33067;49.296;14.470;2023-04-26T01:35:36;96779.42;;;10.27;36.96
47080;BME280;33067;49.296;14.470;2023-04-26T01:38:01;96783.10;;;9.85;37.23
47080;BME280;33067;49.296;14.470;2023-04-26T01:40:27;96784.09;;;9.76;37.26
47080;BME280;33067;49.296;14.470;2023-04-26T01:42:52;96785.49;;;9.16;37.50
47080;BME280;33067;49.296;14.470;2023-04-26T01:45:18;96789.42;;;8.81;37.90
47080;BME280;33067;49.296;14.470;2023-04-26T01:47:43;96790.17;;;8.83;38.20
47080;BME280;33067;49.296;14.470;2023-04-26T01:50:09;96791.68;;;8.69;38.26
47080;BME280;33067;49.296;14.470;2023-04-26T01:52:34;96791.07;;;8.40;38.29
47080;BME280;33067;49.296;14.470;2023-04-26T01:54:59;96792.35;;;8.59;38.54
47080;BME280;33067;49.296;14.470;2023-04-26T01:57:25;96792.25;;;8.93;38.68
47080;BME280;33067;49.296;14.470;2023-04-26T01:59:50;96794.03;;;9.54;38.24
47080;BME280;33067;49.296;14.470;2023-04-26T02:02:16;96797.76;;;9.75;38.17
47080;BME280;33067;49.296;14.470;2023-04-26T02:04:41;96799.78;;;9.79;38.20
47080;BME280;33067;49.296;14.470;2023-04-26T02:07:06;96801.68;;;9.88;37.99
47080;BME280;33067;49.296;14.470;2023-04-26T02:09:32;96802.64;;;9.68;37.63
47080;BME280;33067;49.296;14.470;2023-04-26T02:13:01;96806.17;;;10.44;37.14
47080;BME280;33067;49.296;14.470;2023-04-26T02:15:27;96807.94;;;10.23;37.52
47080;BME280;33067;49.296;14.470;2023-04-26T02:17:52;96809.62;;;10.00;37.73
47080;BME280;33067;49.296;14.470;2023-04-26T02:20:18;96808.75;;;9.71;38.01
47080;BME280;33067;49.296;14.470;2023-04-26T02:22:43;96809.33;;;10.04;37.62
47080;BME280;33067;49.296;14.470;2023-04-26T02:25:09;96805.44;;;10.18;37.61
47080;BME280;33067;49.296;14.470;2023-04-26T02:27:34;96805.37;;;10.17;37.36
47080;BME280;33067;49.296;14.470;2023-04-26T02:30:00;96806.73;;;9.40;37.94
47080;BME280;33067;49.296;14.470;2023-04-26T02:32:25;96805.46;;;9.14;38.01
47080;BME280;33067;49.296;14.470;2023-04-26T02:34:50;96802.30;;;9.45;37.84
47080;BME280;33067;49.296;14.470;2023-04-26T02:37:16;96799.51;;;9.89;37.74
47080;BME280;33067;49.296;14.470;2023-04-26T02:39:41;96801.48;;;10.01;37.83
47080;BME280;33067;49.296;14.470;2023-04-26T02:42:08;96800.93;;;9.73;37.67
47080;BME280;33067;49.296;14.470;2023-04-26T02:44:31;96802.48;;;9.13;37.75
47080;BME280;33067;49.296;14.470;2023-04-26T02:46:56;96800.60;;;9.74;37.92
47080;BME280;33067;49.296;14.470;2023-04-26T02:49:22;96801.22;;;9.94;37.29
47080;BME280;33067;49.296;14.470;2023-04-26T02:51:47;96796.78;;;9.67;37.28
47080;BME280;33067;49.296;14.470;2023-04-26T02:54:13;96797.03;;;9.77;37.56
47080;BME280;33067;49.296;14.470;2023-04-26T02:56:38;96799.01;;;10.13;37.91
47080;BME280;33067;49.296;14.470;2023-04-26T02:59:03;96801.27;;;10.23;37.93
47080;BME280;33067;49.296;14.470;2023-04-26T03:01:28;96804.19;;;10.09;37.94
47080;BME280;33067;49.296;14.470;2023-04-26T03:03:54;96801.27;;;9.59;37.84
47080;BME280;33067;49.296;14.470;2023-04-26T03:06:19;96800.97;;;9.45;37.98
47080;BME280;33067;49.296;14.470;2023-04-26T03:08:44;96799.31;;;9.89;37.22
47080;BME280;33067;49.296;14.470;2023-04-26T03:11:10;96798.37;;;9.39;37.22
47080;BME280;33067;49.296;14.470;2023-04-26T03:13:35;96799.52;;;9.18;38.57
47080;BME280;33067;49.296;14.470;2023-04-26T03:16:01;96801.66;;;9.28;38.27
47080;BME280;33067;49.296;14.470;2023-04-26T03:18:26;96801.62;;;8.68;38.47
47080;BME280;33067;49.296;14.470;2023-04-26T03:20:51;96803.24;;;8.84;38.23
47080;BME280;33067;49.296;14.470;2023-04-26T03:23:16;96807.94;;;8.53;38.17
47080;BME280;33067;49.296;14.470;2023-04-26T03:25:42;96812.80;;;8.43;37.77
47080;BME280;33067;49.296;14.470;2023-04-26T03:28:07;96812.62;;;8.53;37.82
47080;BME280;33067;49.296;14.470;2023-04-26T03:30:32;96815.84;;;8.53;37.82
47080;BME280;33067;49.296;14.470;2023-04-26T03:32:58;96819.01;;;8.33;38.07
47080;BME280;33067;49.296;14.470;2023-04-26T03:35:23;96819.00;;;8.18;38.60
47080;BME280;33067;49.296;14.470;2023-04-26T03:37:49;96819.13;;;8.54;37.82
47080;BME280;33067;49.296;14.470;2023-04-26T03:40:14;96821.47;;;8.48;38.11
47080;BME280;33067;49.296;14.470;2023-04-26T03:42:40;96816.71;;;8.89;37.61
47080;BME280;33067;49.296;14.470;2023-04-26T03:45:07;96820.27;;;9.17;37.14
47080;BME280;33067;49.296;14.470;2023-04-26T03:47:31;96820.26;;;9.03;37.48
47080;BME280;33067;49.296;14.470;2023-04-26T03:49:57;96822.81;;;8.76;37.54
47080;BME280;33067;49.296;14.470;2023-04-26T03:52:22;96824.96;;;8.75;37.56
47080;BME280;33067;49.296;14.470;2023-04-26T03:54:47;96832.43;;;8.64;37.93
47080;BME280;33067;49.296;14.470;2023-04-26T03:57:12;96826.41;;;8.84;37.59
47080;BME280;33067;49.296;14.470;2023-04-26T03:59:38;96828.39;;;9.03;36.97
47080;BME280;33067;49.296;14.470;2023-04-26T04:02:03;96824.46;;;9.16;36.71
47080;BME280;33067;49.296;14.470;2023-04-26T04:04:28;96825.01;;;9.20;36.64
47080;BME280;33067;49.296;14.470;2023-04-26T04:06:54;96826.65;;;9.48;37.02
47080;BME280;33067;49.296;14.470;2023-04-26T04:09:19;96826.13;;;8.98;37.50
47080;BME280;33067;49.296;14.470;2023-04-26T04:11:44;96825.68;;;9.24;37.84
47080;BME280;33067;49.296;14.470;2023-04-26T04:14:09;96826.55;;;9.12;38.12
47080;BME280;33067;49.296;14.470;2023-04-26T04:16:34;96829.74;;;9.69;37.83
47080;BME280;33067;49.296;14.470;2023-04-26T04:19:00;96833.66;;;9.25;37.16
47080;BME280;33067;49.296;14.470;2023-04-26T04:21:25;96838.26;;;8.85;36.72
47080;BME280;33067;49.296;14.470;2023-04-26T04:23:51;96841.54;;;8.32;37.91
47080;BME280;33067;49.296;14.470;2023-04-26T04:26:16;96842.87;;;8.11;37.78
47080;BME280;33067;49.296;14.470;2023-04-26T04:28:41;96845.73;;;8.52;37.70
47080;BME280;33067;49.296;14.470;2023-04-26T04:31:07;96848.10;;;8.42;36.31
47080;BME280;33067;49.296;14.470;2023-04-26T04:33:32;96846.97;;;8.45;36.50
47080;BME280;33067;49.296;14.470;2023-04-26T04:35:57;96848.48;;;8.43;36.98
47080;BME280;33067;49.296;14.470;2023-04-26T04:38:23;96850.91;;;8.85;36.44
47080;BME280;33067;49.296;14.470;2023-04-26T04:40:48;96847.07;;;9.80;36.93
47080;BME280;33067;49.296;14.470;2023-04-26T04:43:14;96851.32;;;9.70;37.44
47080;BME280;33067;49.296;14.470;2023-04-26T04:45:39;96849.71;;;10.28;36.99
47080;BME280;33067;49.296;14.470;2023-04-26T04:48:05;96849.54;;;9.65;35.47
47080;BME280;33067;49.296;14.470;2023-04-26T04:50:30;96853.21;;;9.56;34.94
47080;BME280;33067;49.296;14.470;2023-04-26T04:52:55;96857.22;;;9.77;35.10
47080;BME280;33067;49.296;14.470;2023-04-26T04:55:20;96861.17;;;9.96;35.05
47080;BME280;33067;49.296;14.470;2023-04-26T04:57:46;96865.60;;;9.56;35.38
47080;BME280;33067;49.296;14.470;2023-04-26T05:00:12;96865.63;;;9.76;35.25
47080;BME280;33067;49.296;14.470;2023-04-26T05:02:36;96865.25;;;9.66;35.24
47080;BME280;33067;49.296;14.470;2023-04-26T05:05:02;96866.10;;;9.69;34.52
47080;BME280;33067;49.296;14.470;2023-04-26T05:07:27;96867.61;;;10.01;34.45
47080;BME280;33067;49.296;14.470;2023-04-26T05:09:53;96872.15;;;10.23;34.00
47080;BME280;33067;49.296;14.470;2023-04-26T05:12:18;96874.21;;;10.09;34.28
47080;BME280;33067;49.296;14.470;2023-04-26T05:14:43;96878.75;;;9.97;34.48
47080;BME280;33067;49.296;14.470;2023-04-26T05:17:09;96879.27;;;9.69;34.23
47080;BME280;33067;49.296;14.470;2023-04-26T05:19:34;96881.18;;;10.05;34.12
47080;BME280;33067;49.296;14.470;2023-04-26T05:21:59;96886.57;;;9.95;34.15
47080;BME280;33067;49.296;14.470;2023-04-26T05:24:24;96892.13;;;10.30;34.05
47080;BME280;33067;49.296;14.470;2023-04-26T05:26:50;96895.77;;;10.40;33.57
47080;BME280;33067;49.296;14.470;2023-04-26T05:29:15;96895.66;;;10.26;33.66
47080;BME280;33067;49.296;14.470;2023-04-26T05:31:41;96893.44;;;10.19;33.12
47080;BME280;33067;49.296;14.470;2023-04-26T05:34:06;96893.33;;;11.30;32.59
47080;BME280;33067;49.296;14.470;2023-04-26T05:36:31;96894.41;;;10.93;32.37
47080;BME280;33067;49.296;14.470;2023-04-26T05:38:57;96897.97;;;10.82;32.50
47080;BME280;33067;49.296;14.470;2023-04-26T05:41:22;96903.24;;;10.91;31.79
47080;BME280;33067;49.296;14.470;2023-04-26T05:43:48;96908.44;;;11.22;31.91
47080;BME280;33067;49.296;14.470;2023-04-26T05:46:13;96909.60;;;11.54;32.25
47080;BME280;33067;49.296;14.470;2023-04-26T05:51:04;96910.86;;;11.61;31.65
47080;BME280;33067;49.296;14.470;2023-04-26T05:53:29;96913.98;;;10.97;32.06
47080;BME280;33067;49.296;14.470;2023-04-26T05:55:55;96917.20;;;10.77;31.83
47080;BME280;33067;49.296;14.470;2023-04-26T05:58:19;96916.93;;;10.99;31.79
47080;BME280;33067;49.296;14.470;2023-04-26T06:00:45;96918.20;;;10.87;32.09
47080;BME280;33067;49.296;14.470;2023-04-26T06:03:10;96915.20;;;11.91;31.70
47080;BME280;33067;49.296;14.470;2023-04-26T06:05:36;96917.93;;;11.99;31.07
47080;BME280;33067;49.296;14.470;2023-04-26T06:08:01;96913.84;;;12.32;30.55
47080;BME280;33067;49.296;14.470;2023-04-26T06:10:26;96912.21;;;12.15;30.66
47080;BME280;33067;49.296;14.470;2023-04-26T06:12:51;96911.32;;;11.63;31.15
47080;BME280;33067;49.296;14.470;2023-04-26T06:15:17;96910.03;;;11.91;30.63
47080;BME280;33067;49.296;14.470;2023-04-26T06:17:43;96917.73;;;10.90;30.81
47080;BME280;33067;49.296;14.470;2023-04-26T06:20:09;96921.24;;;11.38;30.95
47080;BME280;33067;49.296;14.470;2023-04-26T06:22:33;96922.25;;;10.77;31.68
47080;BME280;33067;49.296;14.470;2023-04-26T06:24:59;96926.63;;;11.20;31.47
47080;BME280;33067;49.296;14.470;2023-04-26T06:27:24;96925.73;;;11.21;31.50
47080;BME280;33067;49.296;14.470;2023-04-26T06:29:49;96924.71;;;11.44;31.18
47080;BME280;33067;49.296;14.470;2023-04-26T06:32:15;96930.88;;;11.21;31.57
47080;BME280;33067;49.296;14.470;2023-04-26T06:34:40;96930.13;;;11.26;31.17
47080;BME280;33067;49.296;14.470;2023-04-26T06:37:06;96933.12;;;10.74;31.12
47080;BME280;33067;49.296;14.470;2023-04-26T06:39:31;96934.46;;;10.75;31.22
47080;BME280;33067;49.296;14.470;2023-04-26T06:41:57;96936.83;;;10.12;31.64
47080;BME280;33067;49.296;14.470;2023-04-26T06:44:22;96935.90;;;10.88;30.93
47080;BME280;33067;49.296;14.470;2023-04-26T06:46:47;96934.22;;;10.83;30.90
47080;BME280;33067;49.296;14.470;2023-04-26T06:49:13;96936.60;;;10.93;30.98
47080;BME280;33067;49.296;14.470;2023-04-26T06:51:38;96931.91;;;11.10;30.78
47080;BME280;33067;49.296;14.470;2023-04-26T06:54:03;96937.66;;;10.93;30.51
47080;BME280;33067;49.296;14.470;2023-04-26T06:56:29;96937.01;;;11.34;31.00
47080;BME280;33067;49.296;14.470;2023-04-26T06:58:58;96938.31;;;10.13;32.04
47080;BME280;33067;49.296;14.470;2023-04-26T07:01:20;96940.47;;;10.48;31.63
47080;BME280;33067;49.296;14.470;2023-04-26T07:03:45;96934.37;;;11.58;30.61
47080;BME280;33067;49.296;14.470;2023-04-26T07:06:10;96935.90;;;10.74;30.86
47080;BME280;33067;49.296;14.470;2023-04-26T07:08:35;96934.12;;;11.12;30.84
47080;BME280;33067;49.296;14.470;2023-04-26T07:11:01;96929.02;;;11.69;30.19
47080;BME280;33067;49.296;14.470;2023-04-26T07:13:26;96928.59;;;11.98;30.06
47080;BME280;33067;49.296;14.470;2023-04-26T07:15:51;96930.21;;;11.94;29.98
47080;BME280;33067;49.296;14.470;2023-04-26T07:18:17;96931.48;;;10.83;29.80
47080;BME280;33067;49.296;14.470;2023-04-26T07:20:41;96932.59;;;10.68;30.76
47080;BME280;33067;49.296;14.470;2023-04-26T07:23:07;96931.36;;;11.49;30.17
47080;BME280;33067;49.296;14.470;2023-04-26T07:25:33;96930.30;;;11.79;29.73
47080;BME280;33067;49.296;14.470;2023-04-26T07:27:58;96929.08;;;11.54;29.53
47080;BME280;33067;49.296;14.470;2023-04-26T07:30:24;96929.28;;;11.60;29.35
47080;BME280;33067;49.296;14.470;2023-04-26T07:32:48;96934.52;;;11.97;29.86
47080;BME280;33067;49.296;14.470;2023-04-26T07:35:14;96936.57;;;11.98;29.44
47080;BME280;33067;49.296;14.470;2023-04-26T07:37:39;96939.53;;;12.51;28.41
47080;BME280;33067;49.296;14.470;2023-04-26T07:40:05;96939.29;;;12.36;28.01
47080;BME280;33067;49.296;14.470;2023-04-26T07:42:29;96941.78;;;12.88;27.66
47080;BME280;33067;49.296;14.470;2023-04-26T07:44:55;96944.08;;;12.41;27.96
47080;BME280;33067;49.296;14.470;2023-04-26T07:47:20;96945.65;;;12.75;27.84
47080;BME280;33067;49.296;14.470;2023-04-26T07:49:45;96943.40;;;12.55;28.16
47080;BME280;33067;49.296;14.470;2023-04-26T07:52:10;96942.02;;;13.12;27.60
47080;BME280;33067;49.296;14.470;2023-04-26T07:54:35;96937.74;;;12.60;28.03
47080;BME280;33067;49.296;14.470;2023-04-26T07:57:01;96939.03;;;13.06;26.55
47080;BME280;33067;49.296;14.470;2023-04-26T07:59:26;96930.14;;;11.86;27.38
47080;BME280;33067;49.296;14.470;2023-04-26T08:01:51;96933.09;;;12.68;27.30
47080;BME280;33067;49.296;14.470;2023-04-26T08:04:17;96934.06;;;12.62;27.02
47080;BME280;33067;49.296;14.470;2023-04-26T08:06:42;96936.94;;;12.54;27.89
47080;BME280;33067;49.296;14.470;2023-04-26T08:09:08;96934.37;;;13.29;27.00
47080;BME280;33067;49.296;14.470;2023-04-26T08:11:33;96936.66;;;12.42;27.37
47080;BME280;33067;49.296;14.470;2023-04-26T08:13:59;96938.72;;;11.96;28.42
47080;BME280;33067;49.296;14.470;2023-04-26T08:16:24;96943.98;;;12.55;27.95
47080;BME280;33067;49.296;14.470;2023-04-26T08:18:49;96940.86;;;11.79;27.93
47080;BME280;33067;49.296;14.470;2023-04-26T08:21:15;96943.91;;;11.28;28.15
47080;BME280;33067;49.296;14.470;2023-04-26T08:23:41;96947.40;;;11.57;28.22
47080;BME280;33067;49.296;14.470;2023-04-26T08:26:06;96942.01;;;12.50;27.50
47080;BME280;33067;49.296;14.470;2023-04-26T08:28:32;96943.92;;;11.47;28.82
47080;BME280;33067;49.296;14.470;2023-04-26T08:30:58;96948.92;;;11.48;28.82
47080;BME280;33067;49.296;14.470;2023-04-26T08:33:23;96949.93;;;11.84;28.21
47080;BME280;33067;49.296;14.470;2023-04-26T08:35:48;96955.55;;;12.36;27.82
47080;BME280;33067;49.296;14.470;2023-04-26T08:38:14;96957.04;;;10.90;28.33
47080;BME280;33067;49.296;14.470;2023-04-26T08:40:40;96957.99;;;11.88;28.02
47080;BME280;33067;49.296;14.470;2023-04-26T08:43:05;96954.87;;;12.19;27.61
47080;BME280;33067;49.296;14.470;2023-04-26T08:45:33;96952.53;;;12.34;27.50
47080;BME280;33067;49.296;14.470;2023-04-26T08:48:00;96951.68;;;12.11;27.73
47080;BME280;33067;49.296;14.470;2023-04-26T08:50:22;96951.04;;;12.21;27.65
47080;BME280;33067;49.296;14.470;2023-04-26T08:52:48;96955.16;;;11.12;28.10
47080;BME280;33067;49.296;14.470;2023-04-26T08:55:13;96957.93;;;10.82;28.39
47080;BME280;33067;49.296;14.470;2023-04-26T08:57:38;96959.28;;;12.19;27.92
47080;BME280;33067;49.296;14.470;2023-04-26T09:00:04;96959.53;;;11.68;28.31
47080;BME280;33067;49.296;14.470;2023-04-26T09:02:28;96960.04;;;11.49;28.93
47080;BME280;33067;49.296;14.470;2023-04-26T09:04:54;96964.85;;;11.44;29.22
47080;BME280;33067;49.296;14.470;2023-04-26T09:07:21;96960.82;;;11.47;28.52
47080;BME280;33067;49.296;14.470;2023-04-26T09:09:47;96954.92;;;10.70;27.36
47080;BME280;33067;49.296;14.470;2023-04-26T09:12:10;96960.24;;;13.12;26.56
47080;BME280;33067;49.296;14.470;2023-04-26T09:14:35;96960.08;;;12.81;27.17
47080;BME280;33067;49.296;14.470;2023-04-26T09:17:00;96953.63;;;11.88;27.38
47080;BME280;33067;49.296;14.470;2023-04-26T09:19:34;96950.73;;;11.63;28.26
47080;BME280;33067;49.296;14.470;2023-04-26T09:21:51;96942.56;;;11.77;27.28
47080;BME280;33067;49.296;14.470;2023-04-26T09:24:17;96944.96;;;11.94;27.35
47080;BME280;33067;49.296;14.470;2023-04-26T09:26:42;96944.50;;;12.05;26.86
47080;BME280;33067;49.296;14.470;2023-04-26T09:29:15;96945.03;;;12.40;26.86
47080;BME280;33067;49.296;14.470;2023-04-26T09:31:38;96946.75;;;12.35;26.33
47080;BME280;33067;49.296;14.470;2023-04-26T09:33:59;96939.76;;;11.69;26.75
47080;BME280;33067;49.296;14.470;2023-04-26T09:36:24;96948.37;;;11.47;26.90
47080;BME280;33067;49.296;14.470;2023-04-26T09:38:50;96949.44;;;11.55;26.46
47080;BME280;33067;49.296;14.470;2023-04-26T09:41:15;96950.60;;;11.91;26.45
47080;BME280;33067;49.296;14.470;2023-04-26T09:43:40;96956.31;;;11.45;27.18
47080;BME280;33067;49.296;14.470;2023-04-26T09:46:06;96951.87;;;11.72;26.74
47080;BME280;33067;49.296;14.470;2023-04-26T09:48:32;96946.89;;;11.79;26.25
47080;BME280;33067;49.296;14.470;2023-04-26T09:50:57;96951.42;;;12.73;25.83
47080;BME280;33067;49.296;14.470;2023-04-26T09:53:28;96942.58;;;12.27;25.13
47080;BME280;33067;49.296;14.470;2023-04-26T09:55:47;96939.24;;;10.90;25.18
47080;BME280;33067;49.296;14.470;2023-04-26T09:58:12;96937.59;;;11.11;25.42
47080;BME280;33067;49.296;14.470;2023-04-26T10:00:39;96925.53;;;11.47;24.70
47080;BME280;33067;49.296;14.470;2023-04-26T10:03:05;96926.26;;;11.75;24.70
47080;BME280;33067;49.296;14.470;2023-04-26T10:05:29;96926.64;;;11.93;24.30
47080;BME280;33067;49.296;14.470;2023-04-26T10:07:54;96931.95;;;12.62;24.48
47080;BME280;33067;49.296;14.470;2023-04-26T10:10:19;96931.82;;;12.05;24.31
47080;BME280;33067;49.296;14.470;2023-04-26T10:12:45;96933.95;;;12.06;24.15
47080;BME280;33067;49.296;14.470;2023-04-26T10:15:11;96939.36;;;11.11;24.91
47080;BME280;33067;49.296;14.470;2023-04-26T10:17:35;96934.61;;;11.74;24.53
47080;BME280;33067;49.296;14.470;2023-04-26T10:20:01;96932.68;;;10.66;25.33
47080;BME280;33067;49.296;14.470;2023-04-26T10:22:28;96933.67;;;10.48;25.45
47080;BME280;33067;49.296;14.470;2023-04-26T10:24:53;96935.65;;;11.55;25.34
47080;BME280;33067;49.296;14.470;2023-04-26T10:32:08;96929.36;;;11.79;24.82
47080;BME280;33067;49.296;14.470;2023-04-26T10:34:34;96933.08;;;10.74;25.26
47080;BME280;33067;49.296;14.470;2023-04-26T10:37:06;96934.11;;;11.52;25.00
47080;BME280;33067;49.296;14.470;2023-04-26T10:39:23;96934.93;;;11.63;24.88
47080;BME280;33067;49.296;14.470;2023-04-26T10:41:48;96934.78;;;11.59;24.58
47080;BME280;33067;49.296;14.470;2023-04-26T10:46:40;96928.60;;;11.36;24.67
47080;BME280;33067;49.296;14.470;2023-04-26T10:49:14;96932.19;;;11.02;24.89
47080;BME280;33067;49.296;14.470;2023-04-26T10:51:30;96931.36;;;10.30;25.56
47080;BME280;33067;49.296;14.470;2023-04-26T10:53:59;96928.20;;;11.34;25.05
47080;BME280;33067;49.296;14.470;2023-04-26T10:58:46;96916.68;;;11.70;24.87
47080;BME280;33067;49.296;14.470;2023-04-26T11:01:15;96908.68;;;11.73;22.98
47080;BME280;33067;49.296;14.470;2023-04-26T11:03:37;96906.18;;;11.33;23.61
47080;BME280;33067;49.296;14.470;2023-04-26T11:06:05;96908.22;;;11.16;24.47
47080;BME280;33067;49.296;14.470;2023-04-26T11:08:28;96900.92;;;12.27;23.43
47080;BME280;33067;49.296;14.470;2023-04-26T11:13:18;96903.32;;;11.02;23.88
47080;BME280;33067;49.296;14.470;2023-04-26T11:15:45;96900.21;;;11.48;23.72
47080;BME280;33067;49.296;14.470;2023-04-26T11:18:09;96898.37;;;11.28;24.26
47080;BME280;33067;49.296;14.470;2023-04-26T11:20:34;96907.80;;;11.66;23.98
47080;BME280;33067;49.296;14.470;2023-04-26T11:23:00;96902.78;;;11.74;24.34
47080;BME280;33067;49.296;14.470;2023-04-26T11:25:26;96902.52;;;10.94;25.02
47080;BME280;33067;49.296;14.470;2023-04-26T11:27:50;96898.67;;;11.28;24.46
47080;BME280;33067;49.296;14.470;2023-04-26T11:30:17;96901.75;;;12.49;24.44
47080;BME280;33067;49.296;14.470;2023-04-26T11:32:41;96903.15;;;12.80;24.37
47080;BME280;33067;49.296;14.470;2023-04-26T11:35:07;96901.83;;;12.70;23.97
47080;BME280;33067;49.296;14.470;2023-04-26T11:37:33;96898.77;;;11.37;24.58
47080;BME280;33067;49.296;14.470;2023-04-26T11:39:57;96901.59;;;12.23;23.95
47080;BME280;33067;49.296;14.470;2023-04-26T11:42:24;96904.44;;;12.25;24.08
47080;BME280;33067;49.296;14.470;2023-04-26T11:44:50;96902.95;;;11.90;24.05
47080;BME280;33067;49.296;14.470;2023-04-26T11:47:12;96901.88;;;12.04;23.91
47080;BME280;33067;49.296;14.470;2023-04-26T11:49:38;96900.00;;;11.90;24.10
47080;BME280;33067;49.296;14.470;2023-04-26T11:52:04;96905.66;;;11.63;23.70
47080;BME280;33067;49.296;14.470;2023-04-26T11:54:30;96899.76;;;12.20;23.14
47080;BME280;33067;49.296;14.470;2023-04-26T11:56:54;96900.47;;;13.08;22.86
47080;BME280;33067;49.296;14.470;2023-04-26T11:59:23;96899.08;;;13.29;22.64
47080;BME280;33067;49.296;14.470;2023-04-26T12:01:49;96899.50;;;12.66;23.21
47080;BME280;33067;49.296;14.470;2023-04-26T12:04:10;96898.63;;;12.17;22.96
47080;BME280;33067;49.296;14.470;2023-04-26T12:06:42;96897.80;;;12.27;23.36
47080;BME280;33067;49.296;14.470;2023-04-26T12:09:01;96903.61;;;11.39;24.21
47080;BME280;33067;49.296;14.470;2023-04-26T12:11:26;96904.11;;;12.44;23.22
47080;BME280;33067;49.296;14.470;2023-04-26T12:13:51;96905.42;;;12.87;23.38
47080;BME280;33067;49.296;14.470;2023-04-26T12:16:17;96903.78;;;12.37;23.73
47080;BME280;33067;49.296;14.470;2023-04-26T12:18:48;96908.60;;;12.67;23.61
47080;BME280;33067;49.296;14.470;2023-04-26T12:21:07;96909.91;;;12.54;23.78
47080;BME280;33067;49.296;14.470;2023-04-26T12:23:38;96900.94;;;11.33;25.12
47080;BME280;33067;49.296;14.470;2023-04-26T12:25:58;96912.79;;;10.25;26.15
47080;BME280;33067;49.296;14.470;2023-04-26T12:28:23;96910.58;;;10.24;26.46
47080;BME280;33067;49.296;14.470;2023-04-26T12:30:49;96911.21;;;9.30;27.17
47080;BME280;33067;49.296;14.470;2023-04-26T12:33:14;96906.38;;;10.27;26.79
47080;BME280;33067;49.296;14.470;2023-04-26T12:35:39;96906.35;;;11.24;25.57
47080;BME280;33067;49.296;14.470;2023-04-26T12:38:05;96908.36;;;11.55;25.32
47080;BME280;33067;49.296;14.470;2023-04-26T12:40:30;96907.54;;;11.81;25.33
47080;BME280;33067;49.296;14.470;2023-04-26T12:42:56;96911.69;;;12.36;23.99
47080;BME280;33067;49.296;14.470;2023-04-26T12:45:21;96907.50;;;12.27;24.00
47080;BME280;33067;49.296;14.470;2023-04-26T12:47:46;96901.56;;;11.81;23.98
47080;BME280;33067;49.296;14.470;2023-04-26T12:50:11;96899.39;;;11.79;24.47
47080;BME280;33067;49.296;14.470;2023-04-26T12:52:37;96903.89;;;11.49;24.64
47080;BME280;33067;49.296;14.470;2023-04-26T12:55:02;96908.21;;;12.58;24.03
47080;BME280;33067;49.296;14.470;2023-04-26T12:57:27;96902.76;;;12.66;23.40